sensor_id;sensor_type;location;lat;lon;timestamp;pressure;altitude;pressure_sealevel;temperature;humidity
40502;BME280;29631;49.168;9.848;2022-09-09T00:07:47;96304.81;;;21.19;81.65
40502;BME280;29631;49.168;9.848;2022-09-09T00:10:36;96303.50;;;21.17;82.11
40502;BME280;29631;49.168;9.848;2022-09-09T00:16:19;96307.56;;;21.14;82.40
40502;BME280;29631;49.168;9.848;2022-09-09T00:19:17;96299.03;;;21.07;82.02
40502;BME280;29631;49.168;9.848;2022-09-09T00:27:45;96307.66;;;20.99;82.26
40502;BME280;29631;49.168;9.848;2022-09-09T00:30:26;96297.50;;;20.91;82.02
40502;BME280;29631;49.168;9.848;2022-09-09T00:33:08;96300.44;;;20.95;82.10
40502;BME280;29631;49.168;9.848;2022-09-09T00:35:44;96297.72;;;21.00;82.46
40502;BME280;29631;49.168;9.848;2022-09-09T00:43:38;96280.75;;;21.09;82.26
40502;BME280;29631;49.168;9.848;2022-09-09T00:46:35;96312.78;;;21.29;82.26
40502;BME280;29631;49.168;9.848;2022-09-09T00:49:38;96310.09;;;21.29;81.96
40502;BME280;29631;49.168;9.848;2022-09-09T00:57:53;96303.19;;;21.23;82.11
40502;BME280;29631;49.168;9.848;2022-09-09T01:12:03;96306.31;;;21.35;82.29
40502;BME280;29631;49.168;9.848;2022-09-09T01:17:24;96311.56;;;21.50;82.08
40502;BME280;29631;49.168;9.848;2022-09-09T01:20:17;96301.91;;;21.49;82.24
40502;BME280;29631;49.168;9.848;2022-09-09T01:22:58;96307.22;;;21.59;82.00
40502;BME280;29631;49.168;9.848;2022-09-09T01:28:50;96304.00;;;21.57;81.83
40502;BME280;29631;49.168;9.848;2022-09-09T01:31:42;96308.50;;;21.66;82.07
40502;BME280;29631;49.168;9.848;2022-09-09T01:34:13;96286.31;;;21.56;81.88
40502;BME280;29631;49.168;9.848;2022-09-09T01:37:11;96284.69;;;21.55;81.94
40502;BME280;29631;49.168;9.848;2022-09-09T01:39:37;96305.50;;;21.68;81.71
40502;BME280;29631;49.168;9.848;2022-09-09T01:42:07;96307.59;;;21.76;82.21
40502;BME280;29631;49.168;9.848;2022-09-09T01:44:36;96308.13;;;21.78;81.87
40502;BME280;29631;49.168;9.848;2022-09-09T01:47:04;96297.66;;;21.76;82.21
40502;BME280;29631;49.168;9.848;2022-09-09T01:49:30;96298.16;;;21.78;82.29
40502;BME280;29631;49.168;9.848;2022-09-09T01:51:58;96296.00;;;21.80;82.50
40502;BME280;29631;49.168;9.848;2022-09-09T01:54:29;96277.53;;;21.74;82.68
40502;BME280;29631;49.168;9.848;2022-09-09T01:57:27;96299.97;;;21.88;82.73
40502;BME280;29631;49.168;9.848;2022-09-09T02:00:11;96287.13;;;21.80;82.77
40502;BME280;29631;49.168;9.848;2022-09-09T02:03:13;96306.94;;;21.89;82.69
40502;BME280;29631;49.168;9.848;2022-09-09T02:05:51;96311.44;;;21.93;83.08
40502;BME280;29631;49.168;9.848;2022-09-09T02:08:42;96295.16;;;21.85;82.81
40502;BME280;29631;49.168;9.848;2022-09-09T02:13:40;96305.25;;;21.97;83.10
40502;BME280;29631;49.168;9.848;2022-09-09T02:21:49;96299.28;;;22.00;83.08
40502;BME280;29631;49.168;9.848;2022-09-09T02:24:16;96315.63;;;22.04;83.78
40502;BME280;29631;49.168;9.848;2022-09-09T02:26:45;96313.19;;;22.07;83.36
40502;BME280;29631;49.168;9.848;2022-09-09T02:29:22;96308.09;;;22.06;83.57
40502;BME280;29631;49.168;9.848;2022-09-09T02:31:51;96311.50;;;22.11;83.42
40502;BME280;29631;49.168;9.848;2022-09-09T02:34:21;96317.94;;;22.15;82.98
40502;BME280;29631;49.168;9.848;2022-09-09T02:36:49;96312.31;;;22.12;83.25
40502;BME280;29631;49.168;9.848;2022-09-09T02:39:16;96304.56;;;22.10;83.37
40502;BME280;29631;49.168;9.848;2022-09-09T02:41:42;96289.78;;;22.08;83.47
40502;BME280;29631;49.168;9.848;2022-09-09T02:44:17;96293.00;;;22.10;83.54
40502;BME280;29631;49.168;9.848;2022-09-09T02:47:20;96295.84;;;22.18;83.85
40502;BME280;29631;49.168;9.848;2022-09-09T02:52:36;96299.66;;;22.17;83.59
40502;BME280;29631;49.168;9.848;2022-09-09T02:55:12;96282.47;;;22.13;83.73
40502;BME280;29631;49.168;9.848;2022-09-09T02:57:44;96262.16;;;22.07;83.13
40502;BME280;29631;49.168;9.848;2022-09-09T03:00:13;96267.06;;;22.00;83.19
40502;BME280;29631;49.168;9.848;2022-09-09T03:02:39;96281.47;;;22.09;83.46
40502;BME280;29631;49.168;9.848;2022-09-09T03:05:06;96286.25;;;22.12;83.24
40502;BME280;29631;49.168;9.848;2022-09-09T03:07:32;96264.91;;;22.02;83.38
40502;BME280;29631;49.168;9.848;2022-09-09T03:09:58;96277.69;;;22.10;82.91
40502;BME280;29631;49.168;9.848;2022-09-09T03:12:24;96289.00;;;22.07;83.43
40502;BME280;29631;49.168;9.848;2022-09-09T03:14:49;96294.59;;;22.11;82.99
40502;BME280;29631;49.168;9.848;2022-09-09T03:17:15;96286.31;;;22.07;82.97
40502;BME280;29631;49.168;9.848;2022-09-09T03:19:42;96293.81;;;22.10;83.29
40502;BME280;29631;49.168;9.848;2022-09-09T03:22:10;96289.53;;;22.09;83.09
40502;BME280;29631;49.168;9.848;2022-09-09T03:24:36;96298.91;;;22.12;82.79
40502;BME280;29631;49.168;9.848;2022-09-09T03:27:02;96288.78;;;22.04;82.83
40502;BME280;29631;49.168;9.848;2022-09-09T03:29:28;96286.69;;;22.01;82.85
40502;BME280;29631;49.168;9.848;2022-09-09T03:31:54;96295.00;;;21.99;82.73
40502;BME280;29631;49.168;9.848;2022-09-09T03:34:19;96301.91;;;22.05;82.61
40502;BME280;29631;49.168;9.848;2022-09-09T03:36:45;96280.03;;;21.93;82.89
40502;BME280;29631;49.168;9.848;2022-09-09T03:39:11;96294.50;;;21.97;82.44
40502;BME280;29631;49.168;9.848;2022-09-09T03:41:37;96286.00;;;21.86;82.39
40502;BME280;29631;49.168;9.848;2022-09-09T03:44:03;96278.00;;;21.81;82.63
40502;BME280;29631;49.168;9.848;2022-09-09T03:46:29;96275.25;;;21.86;82.29
40502;BME280;29631;49.168;9.848;2022-09-09T03:48:55;96271.31;;;21.78;82.54
40502;BME280;29631;49.168;9.848;2022-09-09T03:51:21;96276.16;;;21.76;82.62
40502;BME280;29631;49.168;9.848;2022-09-09T03:53:47;96275.44;;;21.71;82.50
40502;BME280;29631;49.168;9.848;2022-09-09T03:56:13;96281.31;;;21.73;82.53
40502;BME280;29631;49.168;9.848;2022-09-09T03:58:39;96279.25;;;21.65;82.51
40502;BME280;29631;49.168;9.848;2022-09-09T04:01:13;96287.03;;;21.66;82.22
40502;BME280;29631;49.168;9.848;2022-09-09T04:03:40;96281.94;;;21.65;82.03
40502;BME280;29631;49.168;9.848;2022-09-09T04:06:07;96283.56;;;21.61;82.45
40502;BME280;29631;49.168;9.848;2022-09-09T04:08:34;96282.44;;;21.67;82.37
40502;BME280;29631;49.168;9.848;2022-09-09T04:11:02;96275.56;;;21.56;81.91
40502;BME280;29631;49.168;9.848;2022-09-09T04:13:30;96290.31;;;21.58;81.96
40502;BME280;29631;49.168;9.848;2022-09-09T04:15:58;96286.84;;;21.53;81.89
40502;BME280;29631;49.168;9.848;2022-09-09T04:18:26;96286.31;;;21.56;82.02
40502;BME280;29631;49.168;9.848;2022-09-09T04:20:54;96286.09;;;21.47;81.71
40502;BME280;29631;49.168;9.848;2022-09-09T04:23:23;96290.13;;;21.45;81.58
40502;BME280;29631;49.168;9.848;2022-09-09T04:25:52;96291.22;;;21.44;81.83
40502;BME280;29631;49.168;9.848;2022-09-09T04:28:22;96296.09;;;21.37;82.24
40502;BME280;29631;49.168;9.848;2022-09-09T04:30:48;96306.53;;;21.38;81.99
40502;BME280;29631;49.168;9.848;2022-09-09T04:33:14;96304.69;;;21.39;82.04
40502;BME280;29631;49.168;9.848;2022-09-09T04:35:50;96305.81;;;21.33;81.97
40502;BME280;29631;49.168;9.848;2022-09-09T04:38:17;96301.22;;;21.33;81.97
40502;BME280;29631;49.168;9.848;2022-09-09T04:40:50;96297.28;;;21.26;81.89
40502;BME280;29631;49.168;9.848;2022-09-09T04:43:17;96311.66;;;21.35;81.85
40502;BME280;29631;49.168;9.848;2022-09-09T04:45:48;96292.94;;;21.30;81.96
40502;BME280;29631;49.168;9.848;2022-09-09T04:48:14;96312.72;;;21.39;82.47
40502;BME280;29631;49.168;9.848;2022-09-09T04:50:40;96287.91;;;21.23;81.78
40502;BME280;29631;49.168;9.848;2022-09-09T04:53:07;96302.06;;;21.29;81.56
40502;BME280;29631;49.168;9.848;2022-09-09T04:55:34;96309.56;;;21.32;81.74
40502;BME280;29631;49.168;9.848;2022-09-09T04:58:08;96312.78;;;21.29;81.78
40502;BME280;29631;49.168;9.848;2022-09-09T05:00:37;96327.28;;;21.28;81.37
40502;BME280;29631;49.168;9.848;2022-09-09T05:03:04;96302.19;;;21.14;81.92
40502;BME280;29631;49.168;9.848;2022-09-09T05:05:31;96315.84;;;21.17;82.05
40502;BME280;29631;49.168;9.848;2022-09-09T05:08:07;96303.81;;;21.10;81.83
40502;BME280;29631;49.168;9.848;2022-09-09T05:10:39;96313.13;;;21.22;82.08
40502;BME280;29631;49.168;9.848;2022-09-09T05:13:07;96312.88;;;21.19;81.87
40502;BME280;29631;49.168;9.848;2022-09-09T05:15:33;96312.88;;;21.19;82.24
40502;BME280;29631;49.168;9.848;2022-09-09T05:18:00;96325.22;;;21.20;82.39
40502;BME280;29631;49.168;9.848;2022-09-09T05:20:27;96318.00;;;21.16;82.49
40502;BME280;29631;49.168;9.848;2022-09-09T05:22:54;96332.69;;;21.23;82.69
40502;BME280;29631;49.168;9.848;2022-09-09T05:25:20;96335.38;;;21.23;82.62
40502;BME280;29631;49.168;9.848;2022-09-09T05:27:47;96339.38;;;21.25;82.53
40502;BME280;29631;49.168;9.848;2022-09-09T05:30:13;96333.22;;;21.25;82.42
40502;BME280;29631;49.168;9.848;2022-09-09T05:32:39;96339.38;;;21.25;82.69
40502;BME280;29631;49.168;9.848;2022-09-09T05:35:05;96344.97;;;21.29;82.81
40502;BME280;29631;49.168;9.848;2022-09-09T05:37:31;96343.84;;;21.35;82.52
40502;BME280;29631;49.168;9.848;2022-09-09T05:39:57;96357.75;;;21.42;82.71
40502;BME280;29631;49.168;9.848;2022-09-09T05:42:23;96357.72;;;21.47;83.21
40502;BME280;29631;49.168;9.848;2022-09-09T05:44:49;96365.22;;;21.50;83.11
40502;BME280;29631;49.168;9.848;2022-09-09T05:47:16;96351.81;;;21.50;82.87
40502;BME280;29631;49.168;9.848;2022-09-09T05:49:42;96348.03;;;21.51;82.80
40502;BME280;29631;49.168;9.848;2022-09-09T05:52:08;96342.69;;;21.51;82.74
40502;BME280;29631;49.168;9.848;2022-09-09T05:54:35;96352.88;;;21.54;82.75
40502;BME280;29631;49.168;9.848;2022-09-09T05:57:02;96356.63;;;21.53;82.97
40502;BME280;29631;49.168;9.848;2022-09-09T05:59:28;96368.41;;;21.57;83.00
40502;BME280;29631;49.168;9.848;2022-09-09T06:01:54;96364.66;;;21.53;83.03
40502;BME280;29631;49.168;9.848;2022-09-09T06:04:20;96360.66;;;21.55;82.87
40502;BME280;29631;49.168;9.848;2022-09-09T06:06:50;96346.19;;;21.46;82.50
40502;BME280;29631;49.168;9.848;2022-09-09T06:09:15;96350.44;;;21.52;83.13
40502;BME280;29631;49.168;9.848;2022-09-09T06:11:42;96354.47;;;21.55;83.18
40502;BME280;29631;49.168;9.848;2022-09-09T06:14:08;96347.47;;;21.59;83.65
40502;BME280;29631;49.168;9.848;2022-09-09T06:16:34;96350.88;;;21.69;83.65
40502;BME280;29631;49.168;9.848;2022-09-09T06:19:02;96353.81;;;21.68;83.58
40502;BME280;29631;49.168;9.848;2022-09-09T06:21:35;96347.38;;;21.69;83.84
40502;BME280;29631;49.168;9.848;2022-09-09T06:24:05;96343.00;;;21.78;83.71
40502;BME280;29631;49.168;9.848;2022-09-09T06:26:36;96359.25;;;21.91;83.79
40502;BME280;29631;49.168;9.848;2022-09-09T06:29:03;96325.34;;;21.72;83.31
40502;BME280;29631;49.168;9.848;2022-09-09T06:31:31;96345.06;;;21.86;83.54
40502;BME280;29631;49.168;9.848;2022-09-09T06:33:59;96349.34;;;21.92;83.27
40502;BME280;29631;49.168;9.848;2022-09-09T06:36:31;96359.50;;;21.94;83.08
40502;BME280;29631;49.168;9.848;2022-09-09T06:38:58;96353.59;;;21.92;83.27
40502;BME280;29631;49.168;9.848;2022-09-09T06:41:27;96356.88;;;21.90;82.50
40502;BME280;29631;49.168;9.848;2022-09-09T06:43:54;96365.41;;;21.96;83.11
40502;BME280;29631;49.168;9.848;2022-09-09T06:46:26;96361.88;;;21.96;83.20
40502;BME280;29631;49.168;9.848;2022-09-09T06:48:56;96359.44;;;21.99;83.34
40502;BME280;29631;49.168;9.848;2022-09-09T06:51:30;96348.19;;;21.97;83.17
40502;BME280;29631;49.168;9.848;2022-09-09T06:53:58;96346.00;;;21.99;83.34
40502;BME280;29631;49.168;9.848;2022-09-09T06:56:28;96346.00;;;21.99;83.11
40502;BME280;29631;49.168;9.848;2022-09-09T06:58:56;96345.41;;;22.07;83.25
40502;BME280;29631;49.168;9.848;2022-09-09T07:01:27;96359.84;;;22.11;83.24
40502;BME280;29631;49.168;9.848;2022-09-09T07:03:55;96341.06;;;22.11;83.26
40502;BME280;29631;49.168;9.848;2022-09-09T07:06:27;96358.09;;;22.25;83.27
40502;BME280;29631;49.168;9.848;2022-09-09T07:09:05;96354.63;;;22.25;83.39
40502;BME280;29631;49.168;9.848;2022-09-09T07:11:36;96359.59;;;22.41;83.73
40502;BME280;29631;49.168;9.848;2022-09-09T07:14:02;96355.75;;;22.47;82.97
40502;BME280;29631;49.168;9.848;2022-09-09T07:16:28;96353.28;;;22.51;83.28
40502;BME280;29631;49.168;9.848;2022-09-09T07:18:56;96341.63;;;22.60;83.03
40502;BME280;29631;49.168;9.848;2022-09-09T07:21:25;96345.56;;;22.67;83.35
40502;BME280;29631;49.168;9.848;2022-09-09T07:23:52;96346.22;;;22.78;83.01
40502;BME280;29631;49.168;9.848;2022-09-09T07:26:22;96338.16;;;22.78;82.89
40502;BME280;29631;49.168;9.848;2022-09-09T07:28:48;96355.72;;;22.94;83.26
40502;BME280;29631;49.168;9.848;2022-09-09T07:31:29;96354.56;;;23.00;83.11
40502;BME280;29631;49.168;9.848;2022-09-09T07:33:59;96360.31;;;23.12;83.31
40502;BME280;29631;49.168;9.848;2022-09-09T07:36:31;96354.56;;;23.18;82.72
40502;BME280;29631;49.168;9.848;2022-09-09T07:39:04;96359.81;;;23.28;82.97
40502;BME280;29631;49.168;9.848;2022-09-09T07:41:43;96359.38;;;23.40;83.18
40502;BME280;29631;49.168;9.848;2022-09-09T07:44:16;96354.22;;;23.43;83.01
40502;BME280;29631;49.168;9.848;2022-09-09T07:46:43;96356.53;;;23.49;82.57
40502;BME280;29631;49.168;9.848;2022-09-09T07:49:11;96364.53;;;23.54;82.33
40502;BME280;29631;49.168;9.848;2022-09-09T07:51:43;96372.13;;;23.52;82.17
40502;BME280;29631;49.168;9.848;2022-09-09T07:54:12;96362.50;;;23.46;82.19
40502;BME280;29631;49.168;9.848;2022-09-09T07:56:40;96372.59;;;23.54;81.95
40502;BME280;29631;49.168;9.848;2022-09-09T07:59:06;96380.09;;;23.57;81.82
40502;BME280;29631;49.168;9.848;2022-09-09T08:01:39;96383.66;;;23.53;82.09
40502;BME280;29631;49.168;9.848;2022-09-09T08:04:10;96372.38;;;23.51;81.83
40502;BME280;29631;49.168;9.848;2022-09-09T08:06:42;96384.97;;;23.55;82.23
40502;BME280;29631;49.168;9.848;2022-09-09T08:09:09;96383.97;;;23.51;81.61
40502;BME280;29631;49.168;9.848;2022-09-09T08:11:35;96394.66;;;23.56;81.92
40502;BME280;29631;49.168;9.848;2022-09-09T08:14:02;96378.59;;;23.51;81.40
40502;BME280;29631;49.168;9.848;2022-09-09T08:16:32;96387.09;;;23.58;81.77
40502;BME280;29631;49.168;9.848;2022-09-09T08:18:59;96384.31;;;23.63;81.82
40502;BME280;29631;49.168;9.848;2022-09-09T08:21:28;96397.38;;;23.75;81.06
40502;BME280;29631;49.168;9.848;2022-09-09T08:23:56;96384.13;;;23.78;81.51
40502;BME280;29631;49.168;9.848;2022-09-09T08:26:35;96399.00;;;23.89;81.61
40502;BME280;29631;49.168;9.848;2022-09-09T08:29:03;96387.06;;;23.95;81.61
40502;BME280;29631;49.168;9.848;2022-09-09T08:31:36;96385.88;;;24.01;81.31
40502;BME280;29631;49.168;9.848;2022-09-09T08:34:04;96358.22;;;23.96;81.42
40502;BME280;29631;49.168;9.848;2022-09-09T08:36:37;96373.03;;;24.12;81.63
40502;BME280;29631;49.168;9.848;2022-09-09T08:39:06;96378.53;;;24.20;81.45
40502;BME280;29631;49.168;9.848;2022-09-09T08:42:08;96381.44;;;24.23;80.92
40502;BME280;29631;49.168;9.848;2022-09-09T08:47:48;96387.03;;;24.27;81.75
40502;BME280;29631;49.168;9.848;2022-09-09T08:50:34;96400.94;;;24.34;80.71
40502;BME280;29631;49.168;9.848;2022-09-09T08:53:23;96400.31;;;24.37;81.08
40502;BME280;29631;49.168;9.848;2022-09-09T08:56:04;96402.56;;;24.48;80.70
40502;BME280;29631;49.168;9.848;2022-09-09T08:58:46;96391.41;;;24.55;80.99
40502;BME280;29631;49.168;9.848;2022-09-09T09:02:00;96395.38;;;24.71;80.76
40502;BME280;29631;49.168;9.848;2022-09-09T09:04:46;96369.41;;;24.61;80.97
40502;BME280;29631;49.168;9.848;2022-09-09T09:07:28;96386.72;;;24.74;81.28
40502;BME280;29631;49.168;9.848;2022-09-09T09:10:15;96359.81;;;24.55;80.15
40502;BME280;29631;49.168;9.848;2022-09-09T09:12:45;96377.59;;;24.70;80.97
40502;BME280;29631;49.168;9.848;2022-09-09T09:15:31;96369.44;;;24.75;80.33
40502;BME280;29631;49.168;9.848;2022-09-09T09:18:03;96376.22;;;24.86;80.37
40502;BME280;29631;49.168;9.848;2022-09-09T09:23:24;96377.81;;;24.87;80.01
40502;BME280;29631;49.168;9.848;2022-09-09T09:25:56;96334.56;;;24.65;79.76
40502;BME280;29631;49.168;9.848;2022-09-09T09:28:31;96370.78;;;24.99;80.16
40502;BME280;29631;49.168;9.848;2022-09-09T09:31:10;96379.19;;;25.11;79.86
40502;BME280;29631;49.168;9.848;2022-09-09T09:33:50;96377.00;;;25.26;80.03
40502;BME280;29631;49.168;9.848;2022-09-09T09:36:20;96359.56;;;25.32;79.83
40502;BME280;29631;49.168;9.848;2022-09-09T09:38:58;96366.31;;;25.43;79.45
40502;BME280;29631;49.168;9.848;2022-09-09T09:41:35;96362.41;;;25.49;78.69
40502;BME280;29631;49.168;9.848;2022-09-09T09:44:02;96357.72;;;25.41;79.08
40502;BME280;29631;49.168;9.848;2022-09-09T09:46:28;96368.31;;;25.51;79.21
40502;BME280;29631;49.168;9.848;2022-09-09T09:49:09;96368.13;;;25.48;78.07
40502;BME280;29631;49.168;9.848;2022-09-09T09:51:35;96362.41;;;25.49;78.35
40502;BME280;29631;49.168;9.848;2022-09-09T09:54:26;96364.97;;;25.54;77.41
40502;BME280;29631;49.168;9.848;2022-09-09T09:56:53;96344.19;;;25.55;77.97
40502;BME280;29631;49.168;9.848;2022-09-09T09:59:33;96354.69;;;25.56;77.61
40502;BME280;29631;49.168;9.848;2022-09-09T10:02:17;96351.63;;;25.71;78.09
40502;BME280;29631;49.168;9.848;2022-09-09T10:04:43;96325.72;;;25.70;77.48
40502;BME280;29631;49.168;9.848;2022-09-09T10:07:22;96343.53;;;25.93;76.34
40502;BME280;29631;49.168;9.848;2022-09-09T10:09:57;96338.47;;;26.00;76.50
40502;BME280;29631;49.168;9.848;2022-09-09T10:12:43;96344.00;;;26.17;76.35
40502;BME280;29631;49.168;9.848;2022-09-09T10:16:01;96323.59;;;26.11;76.74
40502;BME280;29631;49.168;9.848;2022-09-09T10:18:58;96347.84;;;26.24;75.86
40502;BME280;29631;49.168;9.848;2022-09-09T10:25:24;96345.25;;;26.41;75.88
40502;BME280;29631;49.168;9.848;2022-09-09T10:28:26;96338.28;;;26.48;75.56
40502;BME280;29631;49.168;9.848;2022-09-09T10:34:08;96313.66;;;26.58;74.65
40502;BME280;29631;49.168;9.848;2022-09-09T10:36:46;96336.59;;;26.69;74.10
40502;BME280;29631;49.168;9.848;2022-09-09T10:39:36;96339.94;;;26.66;73.96
40502;BME280;29631;49.168;9.848;2022-09-09T10:42:14;96355.47;;;26.44;74.02
40502;BME280;29631;49.168;9.848;2022-09-09T10:45:00;96371.72;;;26.31;74.79
40502;BME280;29631;49.168;9.848;2022-09-09T10:47:47;96359.00;;;26.01;75.34
40502;BME280;29631;49.168;9.848;2022-09-09T10:50:55;96375.53;;;25.77;76.42
40502;BME280;29631;49.168;9.848;2022-09-09T10:56:12;96367.66;;;25.32;79.04
40502;BME280;29631;49.168;9.848;2022-09-09T10:58:55;96359.47;;;25.24;79.55
40502;BME280;29631;49.168;9.848;2022-09-09T11:02:33;96360.47;;;25.28;79.19
40502;BME280;29631;49.168;9.848;2022-09-09T11:05:16;96356.78;;;25.24;78.33
40502;BME280;29631;49.168;9.848;2022-09-09T11:10:30;96364.84;;;25.37;78.18
40502;BME280;29631;49.168;9.848;2022-09-09T11:13:05;96358.09;;;25.48;78.05
40502;BME280;29631;49.168;9.848;2022-09-09T11:15:45;96374.16;;;25.66;78.42
40502;BME280;29631;49.168;9.848;2022-09-09T11:18:20;96359.00;;;25.79;78.11
40502;BME280;29631;49.168;9.848;2022-09-09T11:21:00;96344.16;;;25.90;77.48
40502;BME280;29631;49.168;9.848;2022-09-09T11:23:41;96357.63;;;26.12;76.86
40502;BME280;29631;49.168;9.848;2022-09-09T11:26:16;96345.22;;;26.11;76.03
40502;BME280;29631;49.168;9.848;2022-09-09T11:31:49;96369.63;;;26.19;75.29
40502;BME280;29631;49.168;9.848;2022-09-09T11:34:44;96371.16;;;26.12;75.40
40502;BME280;29631;49.168;9.848;2022-09-09T11:40:23;96362.13;;;25.94;76.01
40502;BME280;29631;49.168;9.848;2022-09-09T11:43:11;96369.31;;;25.99;77.04
40502;BME280;29631;49.168;9.848;2022-09-09T11:45:41;96366.63;;;25.99;76.85
40502;BME280;29631;49.168;9.848;2022-09-09T11:48:44;96350.53;;;25.94;77.25
40502;BME280;29631;49.168;9.848;2022-09-09T11:51:26;96355.34;;;25.97;77.67
40502;BME280;29631;49.168;9.848;2022-09-09T11:54:00;96356.56;;;25.91;77.60
40502;BME280;29631;49.168;9.848;2022-09-09T11:59:23;96349.09;;;25.96;77.59
40502;BME280;29631;49.168;9.848;2022-09-09T12:04:31;96326.59;;;25.79;77.33
40502;BME280;29631;49.168;9.848;2022-09-09T12:12:36;96370.22;;;25.94;76.88
40502;BME280;29631;49.168;9.848;2022-09-09T12:15:22;96347.59;;;25.82;76.45
40502;BME280;29631;49.168;9.848;2022-09-09T12:17:51;96361.47;;;25.89;76.76
40502;BME280;29631;49.168;9.848;2022-09-09T12:26:55;96356.00;;;25.80;76.41
40502;BME280;29631;49.168;9.848;2022-09-09T12:32:18;96352.22;;;25.68;76.43
40502;BME280;29631;49.168;9.848;2022-09-09T12:34:48;96363.03;;;25.68;77.04
40502;BME280;29631;49.168;9.848;2022-09-09T12:37:40;96369.78;;;25.57;76.97
40502;BME280;29631;49.168;9.848;2022-09-09T12:40:30;96372.84;;;25.42;77.22
40502;BME280;29631;49.168;9.848;2022-09-09T12:42:57;96381.06;;;25.37;77.52
40502;BME280;29631;49.168;9.848;2022-09-09T12:45:29;96375.59;;;25.15;77.17
40502;BME280;29631;49.168;9.848;2022-09-09T12:48:09;96350.75;;;24.78;77.76
40502;BME280;29631;49.168;9.848;2022-09-09T12:51:06;96383.22;;;24.87;77.97
40502;BME280;29631;49.168;9.848;2022-09-09T12:53:37;96378.69;;;24.69;78.42
40502;BME280;29631;49.168;9.848;2022-09-09T12:56:09;96375.59;;;24.48;78.72
40502;BME280;29631;49.168;9.848;2022-09-09T12:58:47;96376.56;;;24.39;79.56
40502;BME280;29631;49.168;9.848;2022-09-09T13:01:32;96379.53;;;24.24;79.96
40502;BME280;29631;49.168;9.848;2022-09-09T13:03:59;96358.94;;;24.14;80.34
40502;BME280;29631;49.168;9.848;2022-09-09T13:06:28;96346.75;;;24.04;80.43
40502;BME280;29631;49.168;9.848;2022-09-09T13:08:56;96364.94;;;24.12;80.78
40502;BME280;29631;49.168;9.848;2022-09-09T13:11:29;96369.72;;;24.01;80.55
40502;BME280;29631;49.168;9.848;2022-09-09T13:13:57;96375.19;;;23.96;81.21
40502;BME280;29631;49.168;9.848;2022-09-09T13:16:30;96365.88;;;23.89;81.68
40502;BME280;29631;49.168;9.848;2022-09-09T13:19:07;96353.97;;;23.76;81.42
40502;BME280;29631;49.168;9.848;2022-09-09T13:21:36;96356.72;;;23.71;81.65
40502;BME280;29631;49.168;9.848;2022-09-09T13:24:57;96345.22;;;23.66;81.92
40502;BME280;29631;49.168;9.848;2022-09-09T13:27:25;96339.63;;;23.62;81.94
40502;BME280;29631;49.168;9.848;2022-09-09T13:29:54;96319.84;;;23.53;81.56
40502;BME280;29631;49.168;9.848;2022-09-09T13:32:21;96326.97;;;23.63;82.16
40502;BME280;29631;49.168;9.848;2022-09-09T13:34:59;96346.22;;;23.70;82.64
40502;BME280;29631;49.168;9.848;2022-09-09T13:37:38;96324.47;;;23.66;82.52
40502;BME280;29631;49.168;9.848;2022-09-09T13:40:17;96335.13;;;23.76;81.74
40502;BME280;29631;49.168;9.848;2022-09-09T13:42:44;96330.31;;;23.73;81.96
40502;BME280;29631;49.168;9.848;2022-09-09T13:45:20;96322.50;;;23.72;81.84
40502;BME280;29631;49.168;9.848;2022-09-09T13:47:46;96326.16;;;23.81;81.64
40502;BME280;29631;49.168;9.848;2022-09-09T13:50:26;96318.50;;;23.88;81.53
40502;BME280;29631;49.168;9.848;2022-09-09T13:52:58;96321.50;;;24.00;81.76
40502;BME280;29631;49.168;9.848;2022-09-09T13:55:27;96318.41;;;24.06;81.33
40502;BME280;29631;49.168;9.848;2022-09-09T14:00:22;96309.16;;;24.12;80.21
40502;BME280;29631;49.168;9.848;2022-09-09T14:02:50;96317.25;;;24.25;79.67
40502;BME280;29631;49.168;9.848;2022-09-09T14:05:17;96321.66;;;24.35;79.65
40502;BME280;29631;49.168;9.848;2022-09-09T14:07:44;96319.63;;;24.40;79.35
40502;BME280;29631;49.168;9.848;2022-09-09T14:10:11;96304.28;;;24.41;79.54
40502;BME280;29631;49.168;9.848;2022-09-09T14:12:37;96299.31;;;24.48;79.67
40502;BME280;29631;49.168;9.848;2022-09-09T14:15:05;96307.69;;;24.60;79.36
40502;BME280;29631;49.168;9.848;2022-09-09T14:17:32;96301.69;;;24.63;79.63
40502;BME280;29631;49.168;9.848;2022-09-09T14:19:58;96313.97;;;24.69;78.88
40502;BME280;29631;49.168;9.848;2022-09-09T14:22:24;96303.47;;;24.67;79.27
40502;BME280;29631;49.168;9.848;2022-09-09T14:24:50;96316.47;;;24.79;78.93
40502;BME280;29631;49.168;9.848;2022-09-09T14:27:17;96307.28;;;24.80;79.51
40502;BME280;29631;49.168;9.848;2022-09-09T14:29:44;96300.66;;;24.86;79.07
40502;BME280;29631;49.168;9.848;2022-09-09T14:32:11;96299.66;;;24.95;78.73
40502;BME280;29631;49.168;9.848;2022-09-09T14:34:37;96291.03;;;25.06;78.57
40502;BME280;29631;49.168;9.848;2022-09-09T14:37:04;96277.44;;;25.11;78.58
40502;BME280;29631;49.168;9.848;2022-09-09T14:39:30;96289.59;;;25.22;78.56
40502;BME280;29631;49.168;9.848;2022-09-09T14:41:56;96284.19;;;25.22;77.67
40502;BME280;29631;49.168;9.848;2022-09-09T14:44:21;96281.00;;;25.20;77.56
40502;BME280;29631;49.168;9.848;2022-09-09T14:46:47;96291.19;;;25.23;77.51
40502;BME280;29631;49.168;9.848;2022-09-09T14:49:15;96292.16;;;25.27;77.44
40502;BME280;29631;49.168;9.848;2022-09-09T14:51:41;96269.34;;;25.11;77.35
40502;BME280;29631;49.168;9.848;2022-09-09T14:54:07;96285.38;;;25.30;76.83
40502;BME280;29631;49.168;9.848;2022-09-09T14:56:34;96279.81;;;25.26;77.42
40502;BME280;29631;49.168;9.848;2022-09-09T14:59:00;96280.66;;;25.35;77.25
40502;BME280;29631;49.168;9.848;2022-09-09T15:01:27;96280.97;;;25.34;76.86
40502;BME280;29631;49.168;9.848;2022-09-09T15:03:59;96282.75;;;25.38;76.97
40502;BME280;29631;49.168;9.848;2022-09-09T15:06:28;96290.34;;;25.36;76.85
40502;BME280;29631;49.168;9.848;2022-09-09T15:08:55;96282.97;;;25.28;77.07
40502;BME280;29631;49.168;9.848;2022-09-09T15:11:28;96284.75;;;25.33;77.10
40502;BME280;29631;49.168;9.848;2022-09-09T15:13:56;96282.97;;;25.28;76.93